Naval Communications Area Ma, Virginia
Current Conditions -  °F | °C
As of 2:59 PM on Thursday 18 Dec 2014 (Local Time) from KNGU Reporting Station
Scattered Clouds Scattered Clouds  
Wind Chill: 45°   Ceiling: Unl
Heat Index: 49°   Visibility: 10mi
Dew Point: 22°   Wind: 8mph
Humidity: 35%   Direction: 300°WNW
Pressure: 30.09"   Gusts: NA
Location:  36.9343°N, 76.284°W
Report Text: KNGU 181959Z 30007KT 10SM SCT120 SCT280 09/M06 A3009 RMK AO2 SLP191 T00941056
Loading
Personal Weather Stations






























Interactive Weather Map New forecast layout! Learn more

10-Day Weather Forecast

Advertisements
Track Severe Weather on mobile